Latest Weather Observations for Strahan

IDT60801

Issued at 1:05 am EST Thursday 18 September 2014 (issued every 30 minutes, with the page automatically refreshed every 10 minutes)

About weather observations | Map of weather stations | Latest weather observations for TAS | Other Formats
Station Details ID: 097072 Name: STRAHAN AERODROME Lat: -42.16 Lon: 145.29 Height: 21.0 m
Data from the previous 72 hours. | See also: Recent months at Strahan
Date/Time
EST
Temp
°C
App
Temp
°C
Dew
Point
Rel
Hum
%
Delta-T
°C
Wind Press
QNH
hPa
Press
MSL
hPa
Rain
since 9 am
mm
Dir
 
Spd
km/h
Gust
km/h
Spd
kts
Gust
kts
18/01:00am 5.2 2.3 2.4 82 1.1 SE 7 9 4 5 1014.9 1015.0 3.4
18/12:30am 6.2 2.2 3.0 80 1.3 S 13 19 7 10 1014.9 1015.0 3.4
18/12:00am 6.0 -0.7 1.7 74 1.7 SW 26 39 14 21 1014.6 1014.7 3.4
 
Date/Time
EST
Temp
°C
App
Temp
°C
Dew
Point
Rel
Hum
%
Delta-T
°C
Wind Press
QNH
hPa
Press
MSL
hPa
Rain
since 9 am
mm
Dir
 
Spd
km/h
Gust
km/h
Spd
kts
Gust
kts
17/11:51pm 6.2 -0.8 1.9 74 1.7 SW 28 37 15 20 1014.6 1014.7 3.4
17/11:30pm 5.5 1.3 1.4 75 1.6 S 13 19 7 10 1014.2 1014.3 3.4
17/11:00pm 5.7 0.1 1.1 72 1.8 SSW 20 28 11 15 1014.0 1014.1 3.4
17/10:30pm 5.1 -0.3 1.0 75 1.6 SW 19 26 10 14 1013.7 1013.8 3.4
17/10:00pm 5.7 0.1 1.2 73 1.8 SW 20 30 11 16 1013.2 1013.3 3.4
17/09:30pm 4.8 -0.2 1.5 79 1.3 SSW 17 20 9 11 1012.9 1013.0 3.4
17/09:00pm 4.0 -0.7 1.2 82 1.1 SSW 15 22 8 12 1012.4 1012.5 3.4
17/08:30pm 5.0 -0.3 2.0 81 1.2 SW 19 24 10 13 1011.9 1012.0 3.4
17/08:00pm 4.6 -0.8 1.5 80 1.2 SSW 19 24 10 13 1011.8 1011.9 3.4
17/07:30pm 4.7 -0.2 1.7 81 1.2 WSW 17 24 9 13 1011.2 1011.3 3.4
17/07:00pm 5.1 -1.3 1.0 75 1.6 SW 24 39 13 21 1010.7 1010.8 3.4
17/06:30pm 5.2 0.9 3.1 86 0.9 SW 15 20 8 11 1010.3 1010.4 3.4
17/06:00pm 6.8 -0.1 2.5 74 1.8 WSW 28 43 15 23 1009.9 1010.0 3.2
17/05:30pm 6.5 0.2 1.6 71 2.0 WSW 24 33 13 18 1009.5 1009.6 3.2
17/05:00pm 6.2 -1.5 -0.1 64 2.4 WSW 30 39 16 21 1009.3 1009.4 3.2
17/04:30pm 6.2 0.4 2.3 76 1.6 SSW 22 33 12 18 1009.0 1009.1 3.2
17/04:00pm 7.1 1.9 2.4 72 1.9 SSW 19 28 10 15 1008.9 1009.0 3.2
17/03:30pm 6.1 1.3 2.4 77 1.5 S 17 26 9 14 1008.8 1008.9 3.2
17/03:05pm 5.2 -4.1 2.7 84 1.0 SSW 41 59 22 32 1008.7 1008.8 3.2
17/03:04pm 5.3 -4.6 2.7 83 1.1 SSW 44 59 24 32 1008.8 1008.9 3.2
17/03:00pm 6.1 -1.5 2.9 80 1.3 WSW 32 54 17 29 1008.6 1008.7 2.8
17/02:58pm 6.2 -0.6 3.0 80 1.3 WSW 28 48 15 26 1008.5 1008.6 2.8
17/02:38pm 5.1 -5.4 1.4 77 1.5 WSW 46 56 25 30 1007.9 1008.0 2.8
17/02:37pm 5.6 -2.1 2.1 78 1.4 SSW 32 52 17 28 1007.9 1008.0 2.8
17/02:30pm 7.0 0.5 2.7 74 1.8 SSW 26 35 14 19 1007.6 1007.7 2.4
17/02:00pm 6.8 -1.0 2.9 76 1.6 SSW 33 46 18 25 1007.4 1007.5 2.4
17/01:30pm 6.9 0.3 2.0 71 2.0 WSW 26 35 14 19 1007.1 1007.2 2.4
17/01:00pm 4.8 -3.4 2.8 87 0.8 W 35 46 19 25 1007.0 1007.1 2.4
17/12:44pm 5.8 -1.4 2.8 81 1.2 WSW 30 48 16 26 1006.9 1007.0 1.6
17/12:30pm 6.7 0.6 3.0 77 1.5 SW 24 35 13 19 1006.6 1006.7 1.4
17/12:18pm 6.1 2.6 3.3 82 1.2 W 11 19 6 10 1006.5 1006.6 1.4
17/12:00pm 5.5 -2.3 2.7 82 1.2 WSW 33 46 18 25 1006.9 1007.0 1.0
17/11:51am 6.6 -0.2 3.0 78 1.5 WSW 28 48 15 26 1006.7 1006.8 0.6
17/11:30am 8.7 2.4 1.4 60 3.0 WSW 24 35 13 19 1006.7 1006.8 0.4
17/11:00am 8.2 0.6 3.7 73 1.9 SW 33 54 18 29 1006.8 1006.9 0.4
17/10:56am 9.2 2.1 3.8 69 2.4 SW 30 54 16 29 1006.7 1006.8 0.4
17/10:49am 9.5 2.8 3.7 67 2.5 SW 28 43 15 23 1006.7 1006.8 0.4
17/10:30am 7.6 4.0 4.9 83 1.2 S 13 17 7 9 1006.7 1006.8 0.4
17/10:00am 6.6 2.8 4.1 84 1.1 SW 13 17 7 9 1006.8 1006.9 0.0
17/09:30am 6.4 1.5 4.1 85 1.0 WSW 19 32 10 17 1006.9 1007.0 0.0
17/09:00am 5.6 -0.7 3.6 87 0.8 W 26 37 14 20 1007.0 1007.1 7.4
17/08:30am 4.9 0.6 3.4 90 0.6 SW 15 20 8 11 1006.8 1006.9 7.4
17/08:04am 5.0 -2.6 3.7 91 0.5 WSW 33 52 18 28 1007.0 1007.1 6.6
17/08:00am 4.9 -3.5 3.6 91 0.5 WSW 37 56 20 30 1006.9 1007.0 6.4
17/07:39am 5.9 -3.2 4.1 88 0.8 W 41 63 22 34 1006.3 1006.4 5.4
17/07:38am 6.4 -1.8 4.6 88 0.8 W 37 57 20 31 1006.2 1006.3 5.4
17/07:30am 6.8 3.1 4.6 86 1.0 WNW 13 19 7 10 1005.7 1005.8 4.8
17/07:00am 6.5 0.8 4.8 89 0.7 W 24 35 13 19 1005.8 1005.9 4.8
17/06:30am 6.3 1.4 5.1 92 0.5 WSW 20 28 11 15 1005.7 1005.8 4.6
17/06:19am 6.3 0.7 5.3 93 0.4 WSW 24 35 13 19 1005.7 1005.8 4.4
17/06:03am 6.3 -1.4 5.3 93 0.4 WSW 35 46 19 25 1005.8 1005.9 4.4
17/06:00am 6.4 -0.9 5.4 93 0.4 W 33 46 18 25 1005.8 1005.9 4.4
17/05:53am 6.6 0.3 5.7 94 0.4 W 28 41 15 22 1006.0 1006.1 4.2
17/05:30am 6.8 3.8 6.2 96 0.3 NNW 11 22 6 12 1005.9 1006.0 4.2
17/05:00am 7.0 3.2 5.9 93 0.5 NW 15 17 8 9 1006.1 1006.2 4.2
17/04:30am 7.4 3.3 6.2 92 0.5 NW 17 20 9 11 1006.3 1006.4 4.2
17/04:00am 7.6 3.6 6.7 94 0.4 WNW 17 24 9 13 1006.5 1006.6 4.2
17/03:40am 7.3 4.1 6.9 97 0.2 WNW 13 19 7 10 1006.6 1006.7 4.0
17/03:30am 7.1 3.9 6.7 97 0.2 NNW 13 17 7 9 1006.6 1006.7 4.0
17/03:04am 6.7 3.8 6.3 97 0.2 NNE 11 17 6 9 1006.7 1006.8 3.4
17/03:00am 6.7 4.1 6.3 97 0.2 NNE 9 15 5 8 1006.8 1006.9 3.4
17/02:30am 6.5 3.5 6.1 97 0.2 NNE 11 15 6 8 1007.3 1007.4 3.2
17/02:00am 6.6 4.4 6.2 97 0.2 N 7 13 4 7 1007.8 1007.9 3.2
17/01:56am 6.5 4.3 6.1 97 0.2 N 7 13 4 7 1007.8 1007.9 3.2
17/01:33am 6.5 3.1 6.1 97 0.2 N 13 17 7 9 1008.1 1008.2 1.4
17/01:30am 6.3 2.9 5.9 97 0.2 N 13 17 7 9 1008.0 1008.1 1.2
17/01:00am 6.1 2.7 5.7 97 0.2 NNE 13 15 7 8 1008.0 1008.1 1.0
17/12:36am 6.5 3.5 6.1 97 0.2 NNE 11 17 6 9 1008.4 1008.5 1.0
17/12:30am 6.6 3.6 6.2 97 0.2 NNE 11 17 6 9 1008.5 1008.6 1.0
17/12:21am 6.7 3.4 6.3 97 0.2 N 13 19 7 10 1008.6 1008.7 1.0
17/12:00am 6.7 3.3 6.1 96 0.3 N 13 17 7 9 1008.6 1008.7 0.6
 
Date/Time
EST
Temp
°C
App
Temp
°C
Dew
Point
Rel
Hum
%
Delta-T
°C
Wind Press
QNH
hPa
Press
MSL
hPa
Rain
since 9 am
mm
Dir
 
Spd
km/h
Gust
km/h
Spd
kts
Gust
kts
16/11:47pm 6.9 2.4 6.3 96 0.3 N 19 24 10 13 1008.6 1008.7 0.6
16/11:31pm 6.9 2.8 6.2 95 0.3 N 17 26 9 14 1008.8 1008.9 0.6
16/11:30pm 6.7 2.9 6.0 95 0.3 N 15 26 8 14 1008.9 1009.0 0.4
16/11:00pm 6.3 2.8 5.3 93 0.4 NNE 13 17 7 9 1009.0 1009.1 0.0
16/10:30pm 6.4 2.9 5.5 94 0.4 NNE 13 17 7 9 1009.3 1009.4 0.0
16/10:00pm 6.4 2.9 5.4 93 0.4 NNE 13 17 7 9 1009.7 1009.8 0.0
16/09:30pm 6.8 3.7 5.7 93 0.5 NNE 11 15 6 8 1009.7 1009.8 0.0
16/09:00pm 6.8 3.7 5.6 92 0.5 NNE 11 13 6 7 1009.9 1010.0 0.0
16/08:30pm 7.6 4.3 6.4 92 0.5 N 13 17 7 9 1010.0 1010.1 0.0
16/08:00pm 7.5 4.7 6.8 95 0.3 N 11 15 6 8 1010.1 1010.2 0.0
16/07:30pm 7.3 4.3 6.1 92 0.5 N 11 13 6 7 1010.1 1010.2 0.0
16/07:00pm 8.3 5.5 6.8 90 0.7 N 11 15 6 8 1010.2 1010.3 0.0
16/06:30pm 8.9 5.3 6.7 86 1.0 NNW 15 19 8 10 1010.0 1010.1 0.0
16/06:00pm 9.3 6.5 7.1 86 1.0 NW 11 15 6 8 1010.0 1010.1 0.0
16/05:30pm 9.3 6.1 6.7 84 1.2 NW 13 17 7 9 1009.9 1010.0 0.0
16/05:00pm 9.3 5.7 6.7 84 1.2 W 15 24 8 13 1009.8 1009.9 0.0
16/04:30pm 10.0 5.5 7.1 82 1.4 W 20 28 11 15 1009.8 1009.9 0.0
16/04:00pm 11.1 7.1 6.6 74 2.1 WNW 17 26 9 14 1009.7 1009.8 0.0
16/03:30pm 11.4 7.6 5.9 69 2.6 WNW 15 19 8 10 1009.7 1009.8 0.0
16/03:00pm 12.4 9.0 5.8 64 3.1 WNW 13 20 7 11 1009.6 1009.7 0.0
16/02:30pm 12.4 8.2 5.6 63 3.2 W 17 24 9 13 1009.6 1009.7 0.0
16/02:00pm 11.8 7.9 5.2 64 3.0 W 15 20 8 11 1009.7 1009.8 0.0
16/01:30pm 11.5 7.8 4.5 62 3.2 W 13 19 7 10 1009.9 1010.0 0.0
16/01:00pm 11.7 7.3 4.7 62 3.2 W 17 20 9 11 1010.1 1010.2 0.0
16/12:30pm 12.6 8.9 4.3 57 3.8 W 13 17 7 9 1010.5 1010.6 0.0
16/12:00pm 12.1 10.2 5.0 62 3.3 SSE 4 7 2 4 1010.8 1010.9 0.0
16/11:30am 11.3 8.9 5.4 67 2.7 SSE 7 11 4 6 1011.1 1011.2 0.0
16/11:00am 10.3 7.5 5.3 71 2.3 SSE 9 13 5 7 1011.5 1011.6 0.0
16/10:30am 10.2 7.8 5.4 72 2.2 SE 7 11 4 6 1011.8 1011.9 0.0
16/10:00am 9.7 7.4 4.9 72 2.2 S 6 9 3 5 1012.1 1012.2 0.0
16/09:30am 8.4 5.9 5.0 79 1.5 SSE 7 9 4 5 1012.2 1012.3 0.0
16/09:00am 7.8 5.9 5.1 83 1.2 SSE 4 7 2 4 1012.3 1012.4 0.0
16/08:30am 6.9 4.6 4.6 85 1.0 SSE 6 7 3 4 1012.4 1012.5 0.0
16/08:00am 6.2 3.9 4.8 91 0.6 E 6 7 3 4 1012.6 1012.7 0.0
16/07:30am 4.3 1.8 3.7 96 0.2 NE 6 7 3 4 1012.8 1012.9 0.0
16/07:00am 3.8 1.0 3.4 97 0.2 NNE 7 9 4 5 1012.9 1013.0 0.0
16/06:30am 1.4 -0.9 0.7 95 0.3 E 2 7 1 4 1012.8 1012.9 0.0
16/06:00am 2.2 0.5 1.6 96 0.2 CALM 0 7 0 4 1012.7 1012.8 0.0
16/05:30am 2.0 -1.1 1.4 96 0.2 NNE 7 9 4 5 1012.7 1012.8 0.0
16/05:00am 2.0 -1.1 1.4 96 0.2 NE 7 9 4 5 1012.9 1013.0 0.0
16/04:30am 2.4 -0.6 1.8 96 0.2 NE 7 9 4 5 1013.1 1013.2 0.0
16/04:00am 2.4 -0.6 2.0 97 0.2 ENE 7 9 4 5 1013.1 1013.2 0.0
16/03:30am 1.1 -1.2 0.4 95 0.3 E 2 7 1 4 1013.2 1013.3 0.0
16/03:00am 1.6 -2.0 0.7 94 0.3 E 9 11 5 6 1013.2 1013.3 0.0
16/02:30am 1.8 -1.8 0.6 92 0.4 ENE 9 11 5 6 1013.5 1013.6 0.0
16/02:00am 3.2 -0.1 2.2 93 0.4 NE 9 9 5 5 1013.8 1013.9 0.0
16/01:30am 2.8 -0.6 1.8 93 0.4 NE 9 9 5 5 1014.0 1014.1 0.0
16/01:00am 3.2 -0.2 1.9 91 0.5 NNE 9 11 5 6 1014.3 1014.4 0.0
16/12:30am 3.6 0.3 2.3 91 0.5 NNE 9 13 5 7 1014.3 1014.4 0.0
16/12:00am 3.6 -0.5 2.3 91 0.5 NNE 13 15 7 8 1014.3 1014.4 0.0
 
Date/Time
EST
Temp
°C
App
Temp
°C
Dew
Point
Rel
Hum
%
Delta-T
°C
Wind Press
QNH
hPa
Press
MSL
hPa
Rain
since 9 am
mm
Dir
 
Spd
km/h
Gust
km/h
Spd
kts
Gust
kts
15/11:30pm 3.8 0.9 2.6 92 0.5 N 7 9 4 5 1014.5 1014.6 0.0
15/11:00pm 3.8 1.0 2.9 94 0.4 NNE 7 9 4 5 1014.8 1014.9 0.0
15/10:30pm 3.2 1.6 2.2 93 0.4 CALM 0 0 0 0 1014.9 1015.0 0.0
15/10:00pm 3.6 0.3 2.4 92 0.5 NE 9 13 5 7 1014.9 1015.0 0.0
15/09:30pm 3.7 0.4 2.7 93 0.4 NNE 9 11 5 6 1015.0 1015.1 0.0
15/09:00pm 3.9 1.1 2.9 93 0.4 NNE 7 9 4 5 1015.0 1015.1 0.0
15/08:30pm 4.3 1.7 3.0 91 0.5 N 6 7 3 4 1015.1 1015.2 0.0
15/08:00pm 4.3 1.4 2.5 88 0.7 N 7 11 4 6 1015.2 1015.3 0.0
15/07:30pm 5.6 2.5 3.6 87 0.8 N 9 13 5 7 1015.1 1015.2 0.0
15/07:00pm 5.7 4.2 3.2 84 1.0 CALM 0 0 0 0 1014.9 1015.0 0.0
15/06:30pm 6.8 4.0 3.2 78 1.5 SSW 7 9 4 5 1014.9 1015.0 0.0
15/06:00pm 7.9 5.3 3.2 72 2.0 SSW 6 7 3 4 1014.8 1014.9 0.0
15/05:30pm 8.9 5.7 3.1 67 2.5 SW 9 13 5 7 1014.6 1014.7 0.0
15/05:00pm 11.0 7.4 2.8 57 3.5 SW 11 17 6 9 1014.7 1014.8 0.0
15/04:30pm 10.5 6.5 2.8 59 3.3 SSW 13 17 7 9 1014.6 1014.7 0.0
15/04:00pm 11.4 6.6 2.4 54 3.9 SSW 17 20 9 11 1014.7 1014.8 0.0
15/03:30pm 11.6 6.3 2.1 52 4.1 SSW 19 22 10 12 1014.7 1014.8 0.0
15/03:00pm 11.4 6.1 1.6 51 4.1 SW 19 20 10 11 1014.9 1015.0 0.0
15/02:30pm 12.3 7.9 0.4 44 4.9 S 13 20 7 11 1015.2 1015.3 0.0
15/02:00pm 13.2 8.6 -0.8 38 5.7 WSW 13 20 7 11 1015.4 1015.5 0.0
15/01:30pm 12.9 9.3 0.6 43 5.2 S 9 15 5 8 1015.5 1015.6 0.0
15/01:00pm 12.1 8.8 -0.1 43 5.0 SW 7 11 4 6 1016.1 1016.1 0.0
15/12:30pm 10.9 6.9 0.6 49 4.2 SSE 11 17 6 9 1016.7 1016.7 0.0
15/12:00pm 11.5 6.5 1.5 50 4.2 SSE 17 24 9 13 1017.3 1017.3 0.0
15/11:30am 10.7 4.8 1.5 53 3.9 SSE 22 28 12 15 1017.4 1017.4 0.0
15/11:00am 9.9 3.9 1.3 55 3.6 SSE 22 30 12 16 1017.8 1017.8 0.0
15/10:30am 9.5 5.0 2.4 61 3.0 SSE 15 26 8 14 1018.2 1018.2 0.0
15/10:00am 8.8 5.5 2.2 63 2.8 S 9 17 5 9 1018.5 1018.5 0.0
15/09:30am 7.3 4.2 1.6 67 2.3 SSE 7 11 4 6 1019.0 1019.0 0.0
15/09:00am 6.8 3.2 2.9 76 1.6 ESE 11 13 6 7 1019.2 1019.2 0.0
15/08:30am 5.5 2.2 2.3 80 1.3 SSE 9 13 5 7 1019.0 1019.0 0.0
15/08:00am 4.4 1.7 2.9 90 0.6 ENE 6 7 3 4 1019.3 1019.3 0.0
15/07:30am 1.5 -1.7 0.8 95 0.3 ENE 7 9 4 5 1019.0 1019.0 0.0
15/07:00am -0.7 -4.0 -1.4 95 0.2 ENE 6 7 3 4 1018.7 1018.7 0.0
15/06:30am -1.1 -4.5 -2.1 93 0.3 ENE 6 7 3 4 1018.7 1018.7 0.0
15/06:00am -0.5 -4.0 -1.5 93 0.3 ENE 7 9 4 5 1018.6 1018.6 0.0
15/05:30am -0.2 -3.5 -1.0 94 0.3 NNE 6 7 3 4 1018.5 1018.5 0.0
15/05:00am -0.3 -4.2 -1.4 92 0.4 ENE 9 9 5 5 1018.4 1018.4 0.0
15/04:30am 0.5 -2.9 -0.6 92 0.4 ENE 7 7 4 4 1018.6 1018.6 0.0
15/04:00am 0.4 -2.1 -0.7 92 0.4 NE 2 7 1 4 1018.6 1018.6 0.0
15/03:30am 1.0 -2.2 -0.5 90 0.5 NE 6 6 3 3 1018.9 1018.9 0.0
15/03:00am 1.2 -2.2 -0.4 89 0.6 NNE 7 9 4 5 1019.2 1019.2 0.0
15/02:30am 0.6 -2.9 -1.0 89 0.6 N 7 9 4 5 1019.2 1019.2 0.0
15/02:00am 1.4 -1.9 0.1 91 0.5 NE 7 9 4 5 1019.4 1019.4 0.0
15/01:30am 1.1 -2.0 0.1 93 0.4 N 6 7 3 4 1019.7 1019.7 0.0

Other Formats:

Comma delimited format used in spreadsheet applications
http://www.bom.gov.au/fwo/IDT60801/IDT60801.94956.axf

JavaScript Object Notation format (JSON) in row-major order
http://www.bom.gov.au/fwo/IDT60801/IDT60801.94956.json